Time;durP1;ratioP1;P1;durP2;ratioP2;P2;SDS_P1;SDS_P2;PMS_P1;PMS_P2;Temp;Humidity;BMP_temperature;BMP_pressure;BME280_temperature;BME280_humidity;BME280_pressure;Samples;Min_cycle;Max_cycle;Signal;HPM_P1;HPM_P2
2023/05/10 00:01:42;;;;;;;55.25;24.33;;;;;;;12.20;100.00;100755.50;5277221;28;20032;-68
2023/05/10 00:04:13;;;;;;;65.10;25.33;;;;;;;12.22;100.00;100753.53;5261291;28;20131;-68
2023/05/10 00:06:44;;;;;;;45.85;23.20;;;;;;;12.36;100.00;100759.38;5261713;28;20116;-68
2023/05/10 00:09:16;;;;;;;44.88;23.35;;;;;;;12.39;100.00;100758.28;5266880;28;20028;-68
2023/05/10 00:11:47;;;;;;;65.97;26.00;;;;;;;12.39;100.00;100758.28;5263317;28;20033;-68
2023/05/10 00:14:19;;;;;;;67.47;27.88;;;;;;;12.27;100.00;100751.28;5264203;28;20106;-68
2023/05/10 00:16:50;;;;;;;84.05;29.50;;;;;;;12.27;100.00;100757.53;5265370;28;20999;-67
2023/05/10 00:19:22;;;;;;;82.45;27.92;;;;;;;12.26;100.00;100755.81;5265228;28;20087;-68
2023/05/10 00:21:53;;;;;;;53.47;25.48;;;;;;;12.23;100.00;100756.06;5264676;28;20143;-68
2023/05/10 00:24:24;;;;;;;46.05;23.63;;;;;;;12.30;100.00;100751.03;5264070;28;20495;-68
2023/05/10 00:26:56;;;;;;;57.30;24.75;;;;;;;12.14;100.00;100749.69;5267697;28;20576;-68
2023/05/10 00:29:28;;;;;;;70.72;26.10;;;;;;;12.10;100.00;100752.72;5262871;28;20086;-68
2023/05/10 00:31:59;;;;;;;60.70;24.38;;;;;;;12.08;100.00;100752.00;5265320;28;20085;-68
2023/05/10 00:34:31;;;;;;;76.60;28.42;;;;;;;12.04;100.00;100755.91;5266416;28;20074;-68
2023/05/10 00:37:02;;;;;;;53.88;26.70;;;;;;;12.04;100.00;100759.47;5267405;28;20039;-67
2023/05/10 00:39:33;;;;;;;66.88;28.80;;;;;;;12.02;100.00;100760.56;5263351;28;20474;-68
2023/05/10 00:42:05;;;;;;;82.15;30.15;;;;;;;12.02;100.00;100757.88;5267460;28;20079;-68
2023/05/10 00:44:37;;;;;;;67.28;27.40;;;;;;;12.13;100.00;100758.66;5268495;28;22117;-68
2023/05/10 00:47:09;;;;;;;61.20;28.08;;;;;;;12.07;100.00;100753.00;5265067;28;20111;-68
2023/05/10 00:49:41;;;;;;;70.70;30.48;;;;;;;12.07;100.00;100748.50;5273051;28;20032;-68
2023/05/10 00:52:13;;;;;;;82.35;33.35;;;;;;;12.07;100.00;100753.84;5271303;28;20073;-67
2023/05/10 00:54:44;;;;;;;76.18;33.60;;;;;;;12.06;100.00;100754.84;5266472;28;20429;-68
2023/05/10 00:57:15;;;;;;;96.82;36.15;;;;;;;12.08;100.00;100749.31;5272950;28;20052;-68
2023/05/10 00:59:48;;;;;;;113.22;38.15;;;;;;;12.12;100.00;100750.78;5260445;28;20119;-67
2023/05/10 01:02:19;;;;;;;103.47;38.17;;;;;;;12.08;100.00;100747.53;5265034;28;20378;-68
2023/05/10 01:04:51;;;;;;;94.03;37.67;;;;;;;12.09;100.00;100743.03;5262656;28;20041;-68
2023/05/10 01:07:23;;;;;;;94.50;39.50;;;;;;;12.11;100.00;100741.06;5265245;28;20017;-68
2023/05/10 01:09:55;;;;;;;90.90;38.65;;;;;;;12.11;100.00;100741.06;5266484;28;20060;-68
2023/05/10 01:12:26;;;;;;;110.75;42.78;;;;;;;12.13;100.00;100749.81;5264688;28;20033;-68
2023/05/10 01:15:00;;;;;;;124.47;43.30;;;;;;;12.16;100.00;100750.41;5269710;28;20372;-68
2023/05/10 01:17:32;;;;;;;118.78;43.17;;;;;;;12.15;100.00;100745.16;5262354;28;20078;-68
2023/05/10 01:20:05;;;;;;;117.32;44.15;;;;;;;12.19;100.00;100748.44;5261163;28;20051;-67
2023/05/10 01:23:11;;;;;;;114.55;45.60;;;;;;;12.20;100.00;100744.78;5268670;28;20028;-68
2023/05/10 01:26:03;;;;;;;141.25;50.33;;;;;;;12.20;100.00;100740.28;5257635;28;20345;-68
2023/05/10 01:29:33;;;;;;;109.25;46.35;;;;;;;12.23;100.00;100741.84;5263915;28;20024;-68
2023/05/10 01:32:28;;;;;;;162.90;49.95;;;;;;;12.23;100.00;100745.34;5222101;28;20440;-68
2023/05/10 01:35:06;;;;;;;161.90;50.92;;;;;;;12.20;100.00;100737.59;5217170;28;20115;-68
2023/05/10 01:37:45;;;;;;;140.40;50.72;;;;;;;12.20;100.00;100740.28;5258900;28;20491;-68
2023/05/10 01:40:33;;;;;;;144.40;50.38;;;;;;;12.19;100.00;100730.56;5264783;28;20090;-68
2023/05/10 01:43:10;;;;;;;111.82;45.58;;;;;;;12.33;100.00;100742.75;5264489;28;20436;-67
2023/05/10 01:46:10;;;;;;;167.50;52.70;;;;;;;12.27;100.00;100744.13;5268674;28;20028;-67
2023/05/10 01:48:48;;;;;;;143.27;48.85;;;;;;;12.28;100.00;100744.97;5263914;28;20025;-67
2023/05/10 01:51:31;;;;;;;146.77;51.72;;;;;;;12.24;100.00;100748.91;5270694;28;20687;-68
2023/05/10 01:54:04;;;;;;;155.15;53.00;;;;;;;12.20;100.00;100747.47;5266374;28;20442;-68
2023/05/10 01:56:40;;;;;;;134.88;50.20;;;;;;;12.18;100.00;100744.03;5271867;28;20020;-68
2023/05/10 01:59:15;;;;;;;164.88;53.30;;;;;;;12.16;100.00;100745.03;5266551;28;20032;-68
2023/05/10 02:01:48;;;;;;;146.90;52.67;;;;;;;12.16;100.00;100754.91;5262845;28;20102;-68
2023/05/10 02:04:23;;;;;;;160.20;55.03;;;;;;;12.16;100.00;100750.41;5262026;28;20464;-68
2023/05/10 02:06:56;;;;;;;203.10;57.17;;;;;;;12.18;100.00;100754.75;5261087;28;20020;-68
2023/05/10 02:09:29;;;;;;;179.50;59.72;;;;;;;12.16;100.00;100754.91;5264698;28;20482;-68
2023/05/10 02:12:03;;;;;;;171.25;57.92;;;;;;;12.16;100.00;100749.56;5264294;28;20036;-68
2023/05/10 02:14:37;;;;;;;147.07;55.72;;;;;;;12.15;100.00;100756.69;5258582;28;20180;-68
2023/05/10 02:17:09;;;;;;;173.47;60.97;;;;;;;12.16;100.00;100760.25;5268053;28;20551;-69
2023/05/10 02:19:43;;;;;;;181.68;66.07;;;;;;;12.10;100.00;100760.75;5266178;28;20073;-68
2023/05/10 02:22:16;;;;;;;193.57;67.97;;;;;;;12.11;100.00;100763.28;5266579;28;20024;-68
2023/05/10 02:24:49;;;;;;;221.95;70.38;;;;;;;12.11;100.00;100773.16;5259017;28;20085;-67
2023/05/10 02:27:23;;;;;;;213.55;71.32;;;;;;;12.15;100.00;100779.94;5265853;28;20383;-68
2023/05/10 02:29:54;;;;;;;200.07;70.78;;;;;;;12.11;100.00;100771.31;5264614;28;20052;-67
2023/05/10 02:32:27;;;;;;;201.20;70.15;;;;;;;12.17;100.00;100772.63;5269725;28;20447;-68
2023/05/10 02:35:01;;;;;;;218.65;72.97;;;;;;;12.11;100.00;100776.66;5262494;28;20490;-68
2023/05/10 02:37:34;;;;;;;196.35;70.63;;;;;;;12.10;100.00;100775.00;5261129;28;20118;-68
2023/05/10 02:40:07;;;;;;;202.13;74.03;;;;;;;12.10;100.00;100777.66;5265167;28;20494;-68
2023/05/10 02:42:43;;;;;;;202.20;72.25;;;;;;;12.14;100.00;100779.09;5267080;28;20115;-68
2023/05/10 02:45:20;;;;;;;191.65;71.47;;;;;;;12.14;100.00;100784.44;5269553;28;20482;-68
2023/05/10 02:47:52;;;;;;;172.85;67.13;;;;;;;12.12;100.00;100774.88;5266698;28;20024;-68
2023/05/10 02:50:27;;;;;;;197.98;70.97;;;;;;;12.11;100.00;100779.34;5267238;28;20025;-68
2023/05/10 02:53:06;;;;;;;177.15;67.15;;;;;;;12.11;100.00;100779.34;5272186;28;20318;-67
2023/05/10 02:55:41;;;;;;;177.27;66.55;;;;;;;12.16;100.00;100770.94;5268705;28;20116;-67
2023/05/10 02:58:12;;;;;;;180.27;66.65;;;;;;;12.12;100.00;100780.22;5275776;28;20033;-68
2023/05/10 03:00:45;;;;;;;201.35;69.05;;;;;;;12.11;100.00;100789.19;5274358;28;20426;-67
2023/05/10 03:03:16;;;;;;;193.95;68.93;;;;;;;12.11;100.00;100778.50;5267586;28;20207;-67
2023/05/10 03:05:47;;;;;;;181.25;65.63;;;;;;;12.10;100.00;100784.81;5273054;28;20102;-67
2023/05/10 03:08:19;;;;;;;174.18;64.05;;;;;;;12.10;100.00;100783.00;5268400;28;20025;-67
2023/05/10 03:11:11;;;;;;;174.93;64.20;;;;;;;12.10;100.00;100782.13;5269344;28;20024;-67
2023/05/10 03:14:06;;;;;;;159.40;61.30;;;;;;;12.12;100.00;100791.75;5267558;28;20506;-68
2023/05/10 03:16:52;;;;;;;174.70;61.67;;;;;;;12.12;100.00;100790.91;5263493;28;20082;-67
2023/05/10 03:19:32;;;;;;;156.20;60.88;;;;;;;12.12;100.00;100786.41;5267807;28;20055;-67
2023/05/10 03:22:08;;;;;;;153.48;61.72;;;;;;;12.11;100.00;100787.38;5266074;28;20033;-67
2023/05/10 03:24:42;;;;;;;128.90;54.80;;;;;;;12.15;100.00;100787.97;5269961;28;20040;-68
2023/05/10 03:27:14;;;;;;;156.43;58.95;;;;;;;12.10;100.00;100791.03;5268059;28;20033;-68
2023/05/10 03:29:46;;;;;;;149.80;58.08;;;;;;;12.08;100.00;100787.66;5265357;28;20414;-67
2023/05/10 03:32:18;;;;;;;157.30;56.63;;;;;;;12.12;100.00;100796.25;5264070;28;20028;-67
2023/05/10 03:34:49;;;;;;;160.82;56.38;;;;;;;12.12;100.00;100791.75;5257251;28;20384;-67
2023/05/10 03:37:21;;;;;;;145.18;55.25;;;;;;;12.11;100.00;100794.56;5266004;28;20431;-67
2023/05/10 03:39:52;;;;;;;142.93;54.53;;;;;;;12.14;100.00;100794.31;5269671;28;20091;-67
2023/05/10 03:42:23;;;;;;;147.88;56.42;;;;;;;12.12;100.00;100805.13;5268183;28;20036;-67
2023/05/10 03:44:55;;;;;;;150.20;55.25;;;;;;;12.13;100.00;100797.94;5270294;28;20020;-67
2023/05/10 03:47:26;;;;;;;144.68;54.40;;;;;;;12.10;100.00;100796.38;5263431;28;20020;-67
2023/05/10 03:49:58;;;;;;;123.72;50.45;;;;;;;12.18;100.00;100809.13;5272878;28;20032;-67
2023/05/10 03:52:29;;;;;;;142.50;54.63;;;;;;;12.10;100.00;100804.41;5267887;28;20028;-67
2023/05/10 03:55:02;;;;;;;147.75;54.63;;;;;;;12.09;100.00;100799.19;5266435;28;20032;-67
2023/05/10 03:57:34;;;;;;;147.80;54.10;;;;;;;12.07;100.00;100801.97;5266702;28;20032;-67
2023/05/10 04:00:06;;;;;;;156.23;54.58;;;;;;;12.06;100.00;100800.28;5262658;28;20030;-67
2023/05/10 04:02:37;;;;;;;156.30;57.30;;;;;;;12.06;100.00;100802.97;5268330;28;20036;-67
2023/05/10 04:05:08;;;;;;;170.38;58.10;;;;;;;12.05;100.00;100808.44;5259371;28;20045;-67
2023/05/10 04:07:40;;;;;;;171.20;59.17;;;;;;;12.04;100.00;100812.06;5259234;28;20059;-67
2023/05/10 04:10:11;;;;;;;170.50;60.65;;;;;;;12.04;100.00;100814.75;5265008;28;20101;-67
2023/05/10 04:12:43;;;;;;;190.48;65.13;;;;;;;12.01;100.00;100820.38;5269229;28;20082;-67
2023/05/10 04:15:14;;;;;;;217.23;70.20;;;;;;;11.99;100.00;100812.47;5263236;28;20032;-67
2023/05/10 04:17:46;;;;;;;215.45;70.07;;;;;;;12.00;100.00;100813.31;5263245;28;20035;-67
2023/05/10 04:20:17;;;;;;;228.35;72.00;;;;;;;11.98;100.00;100820.63;5260986;28;20062;-67
2023/05/10 04:22:49;;;;;;;210.88;72.88;;;;;;;11.94;100.00;100815.50;5264807;28;20295;-67
2023/05/10 04:25:20;;;;;;;227.52;72.63;;;;;;;11.95;100.00;100813.72;5267497;28;20020;-67
2023/05/10 04:27:51;;;;;;;195.70;67.47;;;;;;;11.90;100.00;100811.41;5266795;28;20491;-67
2023/05/10 04:30:23;;;;;;;170.05;62.85;;;;;;;11.85;100.00;100810.03;5266197;28;20039;-67
2023/05/10 04:32:54;;;;;;;155.50;58.90;;;;;;;11.80;100.00;100815.78;5268838;28;20602;-67
2023/05/10 04:35:26;;;;;;;144.68;55.38;;;;;;;11.75;100.00;100815.31;5286942;28;20048;-67
2023/05/10 04:37:57;;;;;;;132.57;52.13;;;;;;;11.72;100.00;100820.91;5265562;28;20024;-67
2023/05/10 04:40:28;;;;;;;121.32;49.30;;;;;;;11.71;100.00;100816.53;5267776;28;20043;-67
2023/05/10 04:43:00;;;;;;;122.55;48.17;;;;;;;11.66;100.00;100816.91;5263442;28;20024;-67
2023/05/10 04:45:31;;;;;;;112.03;45.75;;;;;;;11.64;100.00;100823.34;5276391;28;20402;-67
2023/05/10 04:48:03;;;;;;;110.20;44.58;;;;;;;11.63;100.00;100824.34;5265551;28;20529;-67
2023/05/10 04:50:35;;;;;;;106.22;45.00;;;;;;;11.62;100.00;100822.63;5268516;28;20032;-67
2023/05/10 04:53:06;;;;;;;103.75;42.00;;;;;;;11.60;100.00;100821.91;5262178;28;20082;-67
2023/05/10 04:55:38;;;;;;;89.22;41.58;;;;;;;11.57;100.00;100823.00;5259681;28;20085;-67
2023/05/10 04:58:09;;;;;;;97.18;40.70;;;;;;;11.58;100.00;100827.34;5256020;28;20032;-67
2023/05/10 05:00:41;;;;;;;96.47;40.65;;;;;;;11.57;100.00;100826.53;5263086;28;20031;-67
2023/05/10 05:03:12;;;;;;;99.85;41.50;;;;;;;11.58;100.00;100830.91;5262046;28;20119;-67
2023/05/10 05:05:44;;;;;;;93.70;40.50;;;;;;;11.58;100.00;100833.59;5272402;28;20596;-67
2023/05/10 05:08:16;;;;;;;90.38;39.80;;;;;;;11.54;100.00;100834.81;5267123;28;20181;-67
2023/05/10 05:10:49;;;;;;;90.82;39.97;;;;;;;11.58;100.00;100836.25;5267118;28;20115;-67
2023/05/10 05:13:21;;;;;;;94.43;39.67;;;;;;;11.61;100.00;100834.31;5265226;28;20353;-67
2023/05/10 05:15:53;;;;;;;86.75;39.30;;;;;;;11.59;100.00;100831.75;5268164;28;20512;-67
2023/05/10 05:18:24;;;;;;;80.00;38.15;;;;;;;11.64;100.00;100836.72;5266553;28;20683;-67
2023/05/10 05:20:56;;;;;;;90.65;39.80;;;;;;;11.65;100.00;100846.44;5265614;28;20073;-67
2023/05/10 05:23:27;;;;;;;85.60;38.30;;;;;;;11.66;100.00;100842.78;5269391;28;20411;-66
2023/05/10 05:25:58;;;;;;;85.75;38.42;;;;;;;11.66;100.00;100846.31;5265686;28;20035;-67
2023/05/10 05:28:32;;;;;;;84.28;39.60;;;;;;;11.65;100.00;100847.28;5265874;28;20016;-67
2023/05/10 05:31:05;;;;;;;84.47;39.03;;;;;;;11.68;100.00;100846.19;5258268;28;20490;-67
2023/05/10 05:33:37;;;;;;;87.53;38.83;;;;;;;11.66;100.00;100850.78;5264901;28;21009;-67
2023/05/10 05:36:08;;;;;;;86.82;39.03;;;;;;;11.64;100.00;100853.63;5268355;28;20033;-67
2023/05/10 05:38:40;;;;;;;83.00;40.85;;;;;;;11.66;100.00;100856.13;5271987;28;20099;-67
2023/05/10 05:41:11;;;;;;;85.38;38.58;;;;;;;11.68;100.00;100856.88;5266352;28;20029;-67
2023/05/10 05:43:43;;;;;;;90.28;39.95;;;;;;;11.76;100.00;100854.44;5265464;28;20032;-67
2023/05/10 05:46:14;;;;;;;85.47;39.65;;;;;;;11.71;100.00;100861.97;5261575;28;20028;-67
2023/05/10 05:48:46;;;;;;;87.45;39.33;;;;;;;11.77;100.00;100856.13;5263525;28;20035;-67
2023/05/10 05:51:17;;;;;;;89.63;39.20;;;;;;;11.72;100.00;100855.66;5269787;28;20107;-67
2023/05/10 05:53:48;;;;;;;76.80;37.65;;;;;;;11.72;100.00;100859.19;5269372;28;20031;-67
2023/05/10 05:56:24;;;;;;;77.82;38.50;;;;;;;11.73;100.00;100857.34;5262045;28;20029;-67
2023/05/10 05:58:55;;;;;;;82.82;37.05;;;;;;;11.80;100.00;100866.56;5268387;28;20497;-66
2023/05/10 06:01:26;;;;;;;79.85;39.20;;;;;;;11.84;100.00;100867.19;5260429;28;20020;-67
2023/05/10 06:03:58;;;;;;;75.65;36.80;;;;;;;11.94;100.00;100868.97;5273842;28;20090;-67
2023/05/10 06:06:29;;;;;;;80.22;38.97;;;;;;;11.93;100.00;100863.78;5312551;27;20101;-67
2023/05/10 06:09:00;;;;;;;80.82;38.90;;;;;;;11.94;100.00;100868.97;5312138;27;20015;-67
2023/05/10 06:11:32;;;;;;;77.35;38.50;;;;;;;11.92;100.00;100876.28;5311747;28;20024;-67
2023/05/10 06:14:04;;;;;;;76.28;37.08;;;;;;;11.98;100.00;100884.78;5310084;28;20134;-67
2023/05/10 06:16:35;;;;;;;79.63;39.95;;;;;;;11.95;100.00;100881.41;5307352;28;20399;-68
2023/05/10 06:19:07;;;;;;;81.35;38.97;;;;;;;12.00;100.00;100877.50;5307907;28;20161;-67
2023/05/10 06:21:38;;;;;;;80.55;39.70;;;;;;;12.07;100.00;100881.38;5312302;28;20019;-67
2023/05/10 06:24:10;;;;;;;84.72;40.15;;;;;;;12.13;100.00;100884.38;5302446;28;20049;-67
2023/05/10 06:26:41;;;;;;;88.10;42.60;;;;;;;12.21;100.00;100889.09;5307005;28;20121;-67
2023/05/10 06:29:12;;;;;;;83.13;40.90;;;;;;;12.24;100.00;100886.16;5300109;28;20020;-67
2023/05/10 06:31:44;;;;;;;75.85;37.92;;;;;;;12.26;100.00;100894.91;5310710;28;20092;-67
2023/05/10 06:34:15;;;;;;;79.18;39.58;;;;;;;12.25;100.00;100897.72;5310370;28;20055;-67
2023/05/10 06:36:46;;;;;;;80.90;40.63;;;;;;;12.23;100.00;100895.16;5309604;28;20032;-66
2023/05/10 06:39:18;;;;;;;76.25;38.92;;;;;;;12.23;100.00;100894.31;5308471;28;20034;-67
2023/05/10 06:41:49;;;;;;;72.97;37.95;;;;;;;12.19;100.00;100904.41;5305665;28;20135;-67
2023/05/10 06:44:21;;;;;;;75.45;39.17;;;;;;;12.19;100.00;100900.91;5311495;28;20491;-67
2023/05/10 06:46:53;;;;;;;73.63;39.97;;;;;;;12.19;100.00;100904.41;5310262;28;20046;-67
2023/05/10 06:49:24;;;;;;;76.30;40.17;;;;;;;12.20;100.00;100903.47;5307291;28;20038;-67
2023/05/10 06:51:56;;;;;;;71.82;37.63;;;;;;;12.28;100.00;100911.69;5311995;28;20032;-67
2023/05/10 06:54:27;;;;;;;72.05;38.63;;;;;;;12.23;100.00;100911.22;5311919;28;20027;-67
2023/05/10 06:56:59;;;;;;;67.10;38.50;;;;;;;12.21;100.00;100913.16;5308867;28;20064;-67
2023/05/10 06:59:30;;;;;;;71.80;37.35;;;;;;;12.21;100.00;100906.97;5311780;28;20039;-67
2023/05/10 07:02:02;;;;;;;71.43;38.13;;;;;;;12.18;100.00;100915.22;5309535;28;20042;-67
2023/05/10 07:04:33;;;;;;;70.32;36.28;;;;;;;12.16;100.00;100912.72;5309047;28;20116;-67
2023/05/10 07:07:05;;;;;;;62.75;36.15;;;;;;;12.15;100.00;100914.50;5297081;28;20455;-67
2023/05/10 07:09:36;;;;;;;64.75;35.75;;;;;;;12.17;100.00;100917.06;5294880;28;20115;-67
2023/05/10 07:12:07;;;;;;;64.38;36.40;;;;;;;12.19;100.00;100931.16;5294169;28;20067;-67
2023/05/10 07:14:39;;;;;;;66.22;36.35;;;;;;;12.21;100.00;100923.88;5293635;28;20027;-66
2023/05/10 07:17:11;;;;;;;66.32;35.17;;;;;;;12.19;100.00;100924.97;5291265;28;20016;-67
2023/05/10 07:19:43;;;;;;;64.10;34.70;;;;;;;12.25;100.00;100929.81;5296311;28;20074;-67
2023/05/10 07:22:15;;;;;;;64.82;34.15;;;;;;;12.27;100.00;100933.22;5294845;28;20042;-67
2023/05/10 07:24:46;;;;;;;62.60;33.40;;;;;;;12.27;100.00;100941.22;5287820;28;20032;-67
2023/05/10 07:27:17;;;;;;;53.88;30.27;;;;;;;12.31;100.00;100940.00;5290963;28;20523;-67
2023/05/10 07:29:49;;;;;;;47.38;29.13;;;;;;;12.23;100.00;100939.78;5296720;28;20026;-66
2023/05/10 07:32:21;;;;;;;48.30;27.60;;;;;;;12.23;100.00;100940.63;5299989;28;20043;-67
2023/05/10 07:34:52;;;;;;;44.85;26.60;;;;;;;12.23;100.00;100945.13;5290008;28;20428;-67
2023/05/10 07:37:23;;;;;;;49.63;26.88;;;;;;;12.21;100.00;100945.25;5288934;28;20607;-67
2023/05/10 07:39:55;;;;;;;42.60;26.23;;;;;;;12.23;100.00;100943.31;5299417;28;20024;-66
2023/05/10 07:42:27;;;;;;;36.85;23.08;;;;;;;12.25;100.00;100949.38;5291911;28;20115;-66
2023/05/10 07:44:58;;;;;;;37.40;22.70;;;;;;;12.21;100.00;100941.75;5293535;28;20039;-67
2023/05/10 07:47:29;;;;;;;36.40;21.52;;;;;;;12.25;100.00;100951.22;5297788;28;20028;-67
2023/05/10 07:50:01;;;;;;;36.65;21.92;;;;;;;12.23;100.00;100950.50;5289534;28;20077;-66
2023/05/10 07:52:32;;;;;;;33.40;20.83;;;;;;;12.24;100.00;100947.69;5295666;28;20512;-67
2023/05/10 07:55:05;;;;;;;33.33;20.27;;;;;;;12.25;100.00;100953.88;5298318;28;20020;-69
2023/05/10 07:57:38;;;;;;;31.60;19.52;;;;;;;12.28;100.00;100957.16;5287244;28;20028;-67
2023/05/10 08:00:12;;;;;;;30.52;20.67;;;;;;;12.30;100.00;100965.91;5290565;28;20020;-67
2023/05/10 08:02:44;;;;;;;29.20;18.35;;;;;;;12.31;100.00;100967.63;5289577;28;20466;-67
2023/05/10 08:05:15;;;;;;;32.40;20.52;;;;;;;12.38;100.00;100975.16;5312074;27;20081;-67
2023/05/10 08:07:46;;;;;;;28.17;18.70;;;;;;;12.49;100.00;100972.44;5312785;27;20032;-67
2023/05/10 08:10:18;;;;;;;29.13;19.25;;;;;;;12.45;100.00;100974.50;5309739;27;20031;-66
2023/05/10 08:12:49;;;;;;;28.83;19.38;;;;;;;12.46;100.00;100973.53;5313218;27;20031;-70
2023/05/10 08:15:21;;;;;;;28.42;18.85;;;;;;;12.56;100.00;100973.63;5314156;27;20024;-67
2023/05/10 08:17:52;;;;;;;31.80;19.63;;;;;;;12.58;100.00;100978.84;5315598;27;20034;-67
2023/05/10 08:20:23;;;;;;;28.85;20.63;;;;;;;12.63;100.00;100980.16;5318025;27;20401;-67
2023/05/10 08:22:55;;;;;;;27.77;18.30;;;;;;;12.63;100.00;100982.84;5316972;27;20019;-67
2023/05/10 08:25:26;;;;;;;27.35;17.30;;;;;;;12.67;100.00;100984.28;5310624;27;20489;-67
2023/05/10 08:27:58;;;;;;;21.25;16.38;;;;;;;12.73;100.00;100993.63;5316327;27;20370;-67
2023/05/10 08:30:29;;;;;;;22.05;15.10;;;;;;;12.69;100.00;100990.34;5315593;27;20420;-67
2023/05/10 08:33:01;;;;;;;22.17;15.18;;;;;;;12.77;100.00;100995.09;5309125;27;20114;-67
2023/05/10 08:35:34;;;;;;;23.88;16.05;;;;;;;12.85;100.00;100989.09;5312763;27;20073;-67
2023/05/10 08:38:05;;;;;;;19.25;14.75;;;;;;;12.91;100.00;100986.75;5316646;27;20470;-67
2023/05/10 08:40:37;;;;;;;22.95;14.35;;;;;;;12.96;100.00;100994.38;5320620;27;20032;-66
2023/05/10 08:43:11;;;;;;;18.73;13.23;;;;;;;12.97;100.00;100984.53;5312669;27;20488;-67
2023/05/10 08:45:47;;;;;;;19.27;11.93;;;;;;;12.99;100.00;100985.25;5312361;27;20098;-66
2023/05/10 08:48:21;;;;;;;16.80;11.57;;;;;;;13.13;100.00;100982.25;5311539;27;20031;-67
2023/05/10 08:50:56;;;;;;;;;;;;;;;13.22;100.00;100994.84;5317274;27;20388;-67
2023/05/10 08:53:30;;;;;;;13.68;9.85;;;;;;;13.30;100.00;100991.56;5315328;27;20238;-67
2023/05/10 08:56:02;;;;;;;13.82;9.20;;;;;;;13.47;100.00;100998.16;5314509;27;20043;-67
2023/05/10 08:58:33;;;;;;;13.65;9.30;;;;;;;13.56;100.00;100986.63;5314044;27;20059;-66
2023/05/10 09:01:06;;;;;;;14.32;10.00;;;;;;;13.71;100.00;100992.47;5308510;27;20165;-67
2023/05/10 09:03:38;;;;;;;12.18;8.93;;;;;;;13.69;100.00;100989.06;5314344;27;20019;-67
2023/05/10 09:06:12;;;;;;;12.43;8.93;;;;;;;13.85;100.00;100999.31;5292620;28;20172;-67
2023/05/10 09:08:44;;;;;;;11.23;8.70;;;;;;;14.04;100.00;100995.88;5291466;28;20154;-67
2023/05/10 09:11:16;;;;;;;10.43;7.45;;;;;;;14.11;100.00;100988.94;5299828;28;20506;-67
2023/05/10 09:13:50;;;;;;;11.93;8.07;;;;;;;14.22;100.00;100994.19;5299215;28;20087;-67
2023/05/10 09:16:23;;;;;;;12.02;7.80;;;;;;;14.30;100.00;100989.03;5293562;28;20142;-67
2023/05/10 09:18:54;;;;;;;11.80;7.78;;;;;;;14.46;100.00;100991.16;5293443;28;20036;-67
2023/05/10 09:21:26;;;;;;;10.85;8.20;;;;;;;14.53;100.00;100996.81;5297025;28;20028;-66
2023/05/10 09:24:03;;;;;;;10.48;8.48;;;;;;;14.60;100.00;100995.28;5294548;28;20549;-67
2023/05/10 09:26:35;;;;;;;10.43;7.40;;;;;;;14.63;100.00;100988.78;5289304;28;20024;-67
2023/05/10 09:29:08;;;;;;;9.32;7.15;;;;;;;14.68;100.00;101000.81;5291968;28;20036;-66
2023/05/10 09:31:54;;;;;;;9.45;7.60;;;;;;;14.66;100.00;100991.22;5296327;28;20020;-67
2023/05/10 09:34:31;;;;;;;10.70;7.30;;;;;;;14.70;100.00;100990.78;5294859;28;20040;-67
2023/05/10 09:37:04;;;;;;;11.27;7.85;;;;;;;14.97;100.00;100994.59;5296538;28;20035;-66
2023/05/10 09:39:39;;;;;;;10.88;7.97;;;;;;;14.97;100.00;100999.13;5297641;28;20022;-67
2023/05/10 09:42:10;;;;;;;9.35;7.18;;;;;;;15.09;100.00;101003.34;5296263;28;20039;-67
2023/05/10 09:44:43;;;;;;;10.15;8.40;;;;;;;15.13;100.00;101007.47;5301844;28;20024;-66
2023/05/10 09:47:20;;;;;;;10.63;7.93;;;;;;;15.16;100.00;101003.63;5292149;28;20034;-66
2023/05/10 09:49:55;;;;;;;9.82;7.95;;;;;;;15.19;100.00;101001.50;5293432;28;20028;-67
2023/05/10 09:52:26;;;;;;;;;;;;;;;15.27;100.00;101019.59;5294493;28;20031;-67
2023/05/10 09:54:57;;;;;;;9.73;5.03;;;;;;;15.17;100.00;101018.75;5296902;28;20448;-67
2023/05/10 09:57:29;;;;;;;7.32;4.80;;;;;;;15.10;100.00;101013.97;5299431;28;20040;-66
2023/05/10 10:00:01;;;;;;;6.10;4.15;;;;;;;15.00;100.00;101013.13;5294766;28;20089;-67
2023/05/10 10:02:33;;;;;;;7.97;4.55;;;;;;;14.93;100.00;101012.00;5290701;28;20075;-67
2023/05/10 10:05:06;;;;;;;8.45;4.28;;;;;;;14.91;100.00;101011.28;5280071;28;20476;-67
2023/05/10 10:07:38;;;;;;;5.97;4.57;;;;;;;14.88;100.00;101014.25;5271956;28;20029;-66
2023/05/10 10:10:12;;;;;;;8.52;4.90;;;;;;;14.90;100.00;101013.13;5272312;28;20035;-67
2023/05/10 10:12:44;;;;;;;6.90;4.32;;;;;;;14.95;100.00;101012.69;5268888;28;20115;-67
2023/05/10 10:15:16;;;;;;;5.43;4.30;;;;;;;14.90;100.00;101013.13;5268020;28;20028;-66
2023/05/10 10:17:49;;;;;;;7.13;4.35;;;;;;;14.94;100.00;101019.06;5270886;28;20029;-66
2023/05/10 10:20:22;;;;;;;8.00;4.97;;;;;;;14.88;100.00;101022.31;5264827;28;20558;-66
2023/05/10 10:22:53;;;;;;;8.88;5.60;;;;;;;14.95;100.00;101018.06;5265569;28;20078;-67
2023/05/10 10:25:25;;;;;;;9.23;6.88;;;;;;;15.00;100.00;101009.59;5273626;28;20028;-66
2023/05/10 10:28:09;;;;;;;8.70;6.63;;;;;;;15.08;100.00;101010.56;5263854;28;20365;-66
2023/05/10 10:30:48;;;;;;;8.20;6.85;;;;;;;15.06;100.00;101007.19;5263573;28;20020;-66
2023/05/10 10:33:31;;;;;;;9.52;6.63;;;;;;;15.07;100.00;100998.13;5270550;28;20036;-67
2023/05/10 10:36:04;;;;;;;7.18;6.32;;;;;;;15.06;100.00;101015.25;5267773;28;20067;-67
2023/05/10 10:38:48;;;;;;;8.63;6.95;;;;;;;15.12;100.00;101012.97;5267093;28;20028;-67
2023/05/10 10:41:31;;;;;;;8.07;6.78;;;;;;;15.22;100.00;101008.44;5270239;28;20498;-67
2023/05/10 10:44:22;;;;;;;8.43;7.22;;;;;;;15.40;100.00;101014.78;5269529;28;20044;-67
2023/05/10 10:46:59;;;;;;;10.30;7.80;;;;;;;15.40;100.00;101013.94;5271298;28;20444;-67
2023/05/10 10:50:05;;;;;;;8.73;7.78;;;;;;;15.47;100.00;101006.97;5263402;28;20029;-67
2023/05/10 10:52:37;;;;;;;8.77;7.47;;;;;;;15.54;100.00;101004.56;5273519;28;20078;-67
2023/05/10 10:55:14;;;;;;;9.77;7.57;;;;;;;15.56;100.00;101000.72;5262412;28;20099;-66
2023/05/10 10:58:00;;;;;;;11.27;8.90;;;;;;;15.65;100.00;101015.16;5268440;28;20043;-67
2023/05/10 11:00:33;;;;;;;9.95;8.07;;;;;;;15.65;100.00;101001.69;5268230;28;20028;-67
2023/05/10 11:03:07;;;;;;;11.30;7.97;;;;;;;15.65;100.00;101002.53;5269074;28;20383;-66
2023/05/10 11:05:46;;;;;;;8.63;7.32;;;;;;;15.78;100.00;101010.31;5288280;28;20306;-66
2023/05/10 11:08:18;;;;;;;11.68;8.30;;;;;;;15.86;100.00;101006.88;5294730;28;20027;-67
2023/05/10 11:11:08;;;;;;;9.68;8.27;;;;;;;15.88;100.00;101005.72;5300722;28;20027;-66
2023/05/10 11:13:45;;;;;;;10.13;8.70;;;;;;;15.87;100.00;101006.72;5296316;28;20020;-66
2023/05/10 11:16:20;;;;;;;9.38;8.35;;;;;;;15.76;100.00;101004.25;5284073;28;20028;-67
2023/05/10 11:19:02;;;;;;;9.15;8.05;;;;;;;15.74;100.00;101003.50;5296489;28;20043;-67
2023/05/10 11:21:43;;;;;;;10.18;8.52;;;;;;;15.70;100.00;100999.38;5284719;28;20031;-67
2023/05/10 11:24:17;;;;;;;9.55;8.60;;;;;;;15.67;100.00;101005.91;5301301;28;20038;-67
2023/05/10 11:26:50;;;;;;;10.63;9.52;;;;;;;15.59;100.00;101002.25;5286964;28;20019;-67
2023/05/10 11:29:22;;;;;;;11.68;9.02;;;;;;;15.59;100.00;101013.88;5290177;28;20028;-67
2023/05/10 11:31:57;;;;;;;11.38;9.25;;;;;;;15.53;100.00;101018.97;5298981;28;20066;-67